createdAt,value
2022-10-08T00:01:07.571Z,100897.19
2022-10-08T00:03:37.658Z,100900.84
2022-10-08T00:06:09.128Z,100898.31
2022-10-08T00:08:37.766Z,100899.34
2022-10-08T00:11:09.874Z,100900.50
2022-10-08T00:13:41.622Z,100893.59
2022-10-08T00:16:19.305Z,100905.94
2022-10-08T00:18:47.979Z,100900.66
2022-10-08T00:21:18.533Z,100893.59
2022-10-08T00:23:49.425Z,100885.56
2022-10-08T00:26:18.525Z,100894.44
2022-10-08T00:28:47.004Z,100893.88
2022-10-08T00:31:20.412Z,100892.94
2022-10-08T00:33:51.655Z,100885.13
2022-10-08T00:36:18.856Z,100896.84
2022-10-08T00:38:46.015Z,100893.88
2022-10-08T00:41:22.104Z,100887.81
2022-10-08T00:43:52.903Z,100896.69
2022-10-08T00:46:28.684Z,100900.53
2022-10-08T00:49:03.693Z,100892.53
2022-10-08T00:51:32.137Z,100891.59
2022-10-08T00:54:02.174Z,100891.25
2022-10-08T00:56:31.354Z,100892.31
2022-10-08T00:58:58.508Z,100888.50
2022-10-08T01:01:25.702Z,100885.00
2022-10-08T01:03:52.884Z,100885.69
2022-10-08T01:06:34.463Z,100883.63
2022-10-08T01:09:10.630Z,100877.78
2022-10-08T01:11:47.511Z,100874.56
2022-10-08T01:14:29.469Z,100873.03
2022-10-08T01:17:35.069Z,100868.72
2022-10-08T01:20:11.745Z,100873.19
2022-10-08T01:22:57.466Z,100868.97
2022-10-08T01:25:33.260Z,100868.72
2022-10-08T01:28:09.908Z,100874.78
2022-10-08T01:30:40.701Z,100872.81
2022-10-08T01:33:13.343Z,100866.50
2022-10-08T01:35:45.292Z,100862.34
2022-10-08T01:38:16.676Z,100858.34
2022-10-08T01:40:45.420Z,100855.22
2022-10-08T01:43:15.624Z,100861.44
2022-10-08T01:45:46.831Z,100854.53
2022-10-08T01:48:19.062Z,100851.75
2022-10-08T01:51:04.244Z,100859.06
2022-10-08T01:53:34.829Z,100857.03
2022-10-08T01:56:02.987Z,100858.41
2022-10-08T01:58:54.814Z,100851.50
2022-10-08T02:01:33.366Z,100848.03
2022-10-08T02:04:19.013Z,100841.63
2022-10-08T02:06:51.288Z,100836.47
2022-10-08T02:09:18.634Z,100836.53
2022-10-08T02:11:45.669Z,100832.22
2022-10-08T02:14:12.781Z,100831.19
2022-10-08T02:16:43.618Z,100834.84
2022-10-08T02:19:15.091Z,100824.78
2022-10-08T02:21:43.090Z,100821.25
2022-10-08T02:24:20.013Z,100813.19
2022-10-08T02:26:50.215Z,100811.06
2022-10-08T02:29:24.654Z,100812.38
2022-10-08T02:32:02.638Z,100810.34
2022-10-08T02:34:39.730Z,100817.22
2022-10-08T02:37:08.977Z,100818.34
2022-10-08T02:39:38.559Z,100813.34
2022-10-08T02:42:09.005Z,100816.25
2022-10-08T02:44:42.592Z,100815.19
2022-10-08T02:47:13.152Z,100823.78
2022-10-08T02:49:43.425Z,100828.38
2022-10-08T02:52:10.836Z,100830.84
2022-10-08T02:54:39.982Z,100831.50
2022-10-08T02:57:17.063Z,100836.09
2022-10-08T02:59:45.591Z,100829.16
2022-10-08T03:02:20.097Z,100829.31
2022-10-08T03:04:52.523Z,100837.22
2022-10-08T03:07:22.942Z,100830.69
2022-10-08T03:09:51.762Z,100825.63
2022-10-08T03:12:19.032Z,100832.56
2022-10-08T03:14:48.030Z,100834.69
2022-10-08T03:17:19.728Z,100831.25
2022-10-08T03:19:46.861Z,100825.25
2022-10-08T03:22:13.974Z,100832.22
2022-10-08T03:24:41.060Z,100832.41
2022-10-08T03:27:08.160Z,100829.69
2022-10-08T03:29:35.287Z,100837.69
2022-10-08T03:32:02.392Z,100831.81
2022-10-08T03:34:29.429Z,100842.75
2022-10-08T03:36:56.782Z,100838.91
2022-10-08T03:39:23.906Z,100832.78
2022-10-08T03:41:51.576Z,100833.75
2022-10-08T03:44:18.645Z,100829.69
2022-10-08T03:46:45.759Z,100832.41
2022-10-08T03:49:12.896Z,100834.25
2022-10-08T03:51:39.928Z,100831.72
2022-10-08T03:54:06.986Z,100826.38
2022-10-08T03:56:34.419Z,100828.25
2022-10-08T03:59:03.687Z,100829.84
2022-10-08T04:01:30.886Z,100825.94
2022-10-08T04:03:58.071Z,100819.72
2022-10-08T04:06:25.262Z,100822.19
2022-10-08T04:09:17.017Z,100816.91
2022-10-08T04:11:44.312Z,100816.13
2022-10-08T04:14:11.368Z,100815.28
2022-10-08T04:16:38.438Z,100819.44
2022-10-08T04:19:05.556Z,100814.75
2022-10-08T04:21:32.571Z,100815.34
2022-10-08T04:23:59.632Z,100812.44
2022-10-08T04:26:26.647Z,100818.38
2022-10-08T04:28:54.543Z,100827.91
2022-10-08T04:31:24.206Z,100829.97
2022-10-08T04:33:51.822Z,100826.44
2022-10-08T04:36:21.040Z,100828.06
2022-10-08T04:38:48.734Z,100822.13
2022-10-08T04:41:26.023Z,100824.69
2022-10-08T04:43:54.365Z,100830.59
2022-10-08T04:46:22.302Z,100822.06
2022-10-08T04:48:54.152Z,100826.56
2022-10-08T04:51:23.305Z,100822.97
2022-10-08T04:53:51.113Z,100823.81
2022-10-08T04:56:20.692Z,100822.31
2022-10-08T04:58:48.017Z,100826.06
2022-10-08T05:01:17.022Z,100814.66
2022-10-08T05:03:47.517Z,100826.72
2022-10-08T05:06:16.432Z,100830.03
2022-10-08T05:08:44.476Z,100825.44
2022-10-08T05:11:11.911Z,100829.75
2022-10-08T05:13:39.006Z,100832.66
2022-10-08T05:16:11.289Z,100825.88
2022-10-08T05:18:39.283Z,100830.41
2022-10-08T05:21:08.620Z,100831.13
2022-10-08T05:23:36.595Z,100829.28
2022-10-08T05:26:17.655Z,100826.56
2022-10-08T05:28:47.089Z,100822.13
2022-10-08T05:31:15.158Z,100830.81
2022-10-08T05:33:42.495Z,100833.34
2022-10-08T05:36:16.207Z,100835.13
2022-10-08T05:38:46.459Z,100828.91
2022-10-08T05:41:24.709Z,100836.44
2022-10-08T05:43:53.672Z,100839.09
2022-10-08T05:46:22.477Z,100833.25
2022-10-08T05:48:52.916Z,100835.31
2022-10-08T05:51:20.271Z,100825.81
2022-10-08T05:53:48.635Z,100829.28
2022-10-08T05:56:18.098Z,100832.19
2022-10-08T05:58:45.488Z,100832.34
2022-10-08T06:01:20.277Z,100840.00
2022-10-08T06:03:58.352Z,100842.38
2022-10-08T06:06:26.068Z,100841.00
2022-10-08T06:08:54.332Z,100841.94
2022-10-08T06:11:21.650Z,100832.19
2022-10-08T06:13:52.367Z,100835.66
2022-10-08T06:16:19.491Z,100834.88
2022-10-08T06:18:46.824Z,100843.56
2022-10-08T06:21:17.192Z,100840.66
2022-10-08T06:23:55.392Z,100844.91
2022-10-08T06:26:26.216Z,100854.53
2022-10-08T06:28:53.671Z,100851.22
2022-10-08T06:31:20.812Z,100853.75
2022-10-08T06:33:48.178Z,100857.44
2022-10-08T06:36:20.164Z,100860.06
2022-10-08T06:38:50.983Z,100865.59
2022-10-08T06:41:18.675Z,100866.50
2022-10-08T06:43:45.983Z,100865.59
2022-10-08T06:46:13.157Z,100874.16
2022-10-08T06:48:40.410Z,100867.03
2022-10-08T06:51:12.319Z,100868.03
2022-10-08T06:53:40.679Z,100863.81
2022-10-08T06:56:14.644Z,100869.94
2022-10-08T06:58:43.624Z,100867.97
2022-10-08T07:01:13.082Z,100870.13
2022-10-08T07:03:40.396Z,100870.91
2022-10-08T07:06:09.571Z,100874.13
2022-10-08T07:08:36.842Z,100873.09
2022-10-08T07:11:14.604Z,100867.47
2022-10-08T07:13:42.176Z,100876.41
2022-10-08T07:16:13.819Z,100867.66
2022-10-08T07:18:44.396Z,100872.56
2022-10-08T07:21:13.799Z,100878.41
2022-10-08T07:23:41.356Z,100884.59
2022-10-08T07:26:15.077Z,100886.81
2022-10-08T07:28:44.985Z,100894.63
2022-10-08T07:31:14.730Z,100903.56
2022-10-08T07:33:42.134Z,100906.88
2022-10-08T07:36:14.345Z,100895.69
2022-10-08T07:38:42.488Z,100896.47
2022-10-08T07:41:10.875Z,100902.25
2022-10-08T07:43:41.178Z,100904.44
2022-10-08T07:46:09.696Z,100903.66
2022-10-08T07:48:37.394Z,100908.66
2022-10-08T07:51:17.855Z,100895.19
2022-10-08T07:53:45.363Z,100900.28
2022-10-08T07:56:14.561Z,100899.06
2022-10-08T07:58:41.960Z,100909.81
2022-10-08T08:01:12.425Z,100904.03
2022-10-08T08:03:39.640Z,100904.16
2022-10-08T08:06:14.666Z,100897.63
2022-10-08T08:08:43.336Z,100898.78
2022-10-08T08:11:12.777Z,100902.41
2022-10-08T08:13:41.225Z,100910.03
2022-10-08T08:16:10.882Z,100912.50
2022-10-08T08:18:40.815Z,100908.69
2022-10-08T08:21:15.702Z,100908.56
2022-10-08T08:23:47.825Z,100911.50
2022-10-08T08:26:17.546Z,100918.28
2022-10-08T08:28:44.949Z,100913.31
2022-10-08T08:31:17.045Z,100910.94
2022-10-08T08:33:48.412Z,100911.41
2022-10-08T08:36:15.967Z,100914.28
2022-10-08T08:38:42.984Z,100913.56
2022-10-08T08:41:33.994Z,100912.97
2022-10-08T08:44:03.440Z,100914.38
2022-10-08T08:46:33.829Z,100912.69
2022-10-08T08:49:05.508Z,100917.66
2022-10-08T08:51:32.639Z,100914.81
2022-10-08T08:53:59.872Z,100929.72
2022-10-08T08:56:27.942Z,100919.78
2022-10-08T08:59:13.561Z,100920.84
2022-10-08T09:01:43.306Z,100922.84
2022-10-08T09:04:51.956Z,100933.25
2022-10-08T09:07:23.236Z,100923.28
2022-10-08T09:09:54.666Z,100942.66
2022-10-08T09:12:39.813Z,100928.38
2022-10-08T09:15:17.383Z,100939.47
2022-10-08T09:17:44.694Z,100945.31
2022-10-08T09:20:16.735Z,100943.22
2022-10-08T09:22:45.678Z,100949.03
2022-10-08T09:25:19.897Z,100934.28
2022-10-08T09:27:48.800Z,100933.09
2022-10-08T09:30:24.880Z,100927.34
2022-10-08T09:32:56.880Z,100944.94
2022-10-08T09:35:24.590Z,100943.63
2022-10-08T09:37:52.155Z,100950.22
2022-10-08T09:40:24.712Z,100957.03
2022-10-08T09:43:30.629Z,100958.84
2022-10-08T09:45:58.232Z,100954.38
2022-10-08T09:48:29.943Z,100961.69
2022-10-08T09:51:02.822Z,100958.97
2022-10-08T09:53:42.863Z,100960.47
2022-10-08T09:56:10.437Z,100961.63
2022-10-08T09:58:52.084Z,100960.84
2022-10-08T10:01:19.588Z,100962.31
2022-10-08T10:03:58.276Z,100960.50
2022-10-08T10:06:39.944Z,100972.19
2022-10-08T10:09:25.619Z,100966.56
2022-10-08T10:12:05.920Z,100968.44
2022-10-08T10:14:43.558Z,100966.41
2022-10-08T10:17:19.140Z,100954.22
2022-10-08T10:19:47.726Z,100964.16
2022-10-08T10:22:19.730Z,100963.75
2022-10-08T10:24:55.633Z,100969.25
2022-10-08T10:27:22.552Z,100972.94
2022-10-08T10:30:12.821Z,100980.38
2022-10-08T10:32:51.175Z,100962.16
2022-10-08T10:35:25.581Z,100974.69
2022-10-08T10:38:00.631Z,100985.72
2022-10-08T10:40:31.173Z,100988.81
2022-10-08T10:43:33.382Z,100983.63
2022-10-08T10:46:12.052Z,100967.09
2022-10-08T10:48:39.114Z,100972.59
2022-10-08T10:51:23.149Z,100981.00
2022-10-08T10:54:11.573Z,100977.81
2022-10-08T10:56:45.095Z,100974.00
2022-10-08T11:00:13.293Z,100990.31
2022-10-08T11:02:47.294Z,100996.28
2022-10-08T11:05:18.318Z,100979.75
2022-10-08T11:07:54.119Z,100981.66
2022-10-08T11:10:46.811Z,100978.06
2022-10-08T11:13:35.163Z,100980.59
2022-10-08T11:16:40.505Z,100984.94
2022-10-08T11:19:23.311Z,100988.00
2022-10-08T11:22:07.999Z,100981.56
2022-10-08T11:24:56.711Z,100983.69
2022-10-08T11:27:49.891Z,100988.00
2022-10-08T11:30:23.544Z,100988.97
2022-10-08T11:32:53.648Z,100984.00
2022-10-08T11:35:27.493Z,101001.03
2022-10-08T11:38:00.075Z,101014.06
2022-10-08T11:40:47.041Z,100995.31
2022-10-08T11:43:19.545Z,101006.22
2022-10-08T11:45:49.677Z,101002.81
2022-10-08T11:48:31.797Z,101012.75
2022-10-08T11:51:20.301Z,100999.31
2022-10-08T11:54:19.615Z,101007.66
2022-10-08T11:56:48.603Z,100989.84
2022-10-08T11:59:30.454Z,100996.00
2022-10-08T12:01:59.352Z,101004.06
2022-10-08T12:04:36.850Z,100992.63
2022-10-08T12:07:33.198Z,100994.97
2022-10-08T12:10:35.075Z,100991.56
2022-10-08T12:13:17.666Z,100998.56
2022-10-08T12:15:44.958Z,100994.88
2022-10-08T12:18:23.752Z,100989.69
2022-10-08T12:21:15.741Z,100997.34
2022-10-08T12:23:44.105Z,100999.81
2022-10-08T12:26:13.396Z,100995.53
2022-10-08T12:28:43.245Z,100985.88
2022-10-08T12:31:19.381Z,100996.59
2022-10-08T12:34:11.070Z,100994.25
2022-10-08T12:37:01.994Z,101005.75
2022-10-08T12:39:35.662Z,101001.88
2022-10-08T12:42:22.886Z,100995.41
2022-10-08T12:44:56.977Z,101001.22
2022-10-08T12:47:30.026Z,100998.59
2022-10-08T12:50:03.818Z,100988.44
2022-10-08T12:52:37.007Z,100996.91
2022-10-08T12:55:05.090Z,100995.75
2022-10-08T12:57:36.140Z,100998.22
2022-10-08T13:00:08.756Z,100998.41
2022-10-08T13:02:42.796Z,101002.03
2022-10-08T13:05:40.719Z,101001.50
2022-10-08T13:08:33.101Z,101011.16
2022-10-08T13:11:03.579Z,101015.47
2022-10-08T13:13:39.707Z,101014.78
2022-10-08T13:16:20.052Z,101000.63
2022-10-08T13:18:49.880Z,101003.41
2022-10-08T13:21:35.575Z,101000.63
2022-10-08T13:24:11.484Z,101024.53
2022-10-08T13:26:49.757Z,101007.19
2022-10-08T13:29:37.307Z,101011.59
2022-10-08T13:32:13.186Z,101004.97
2022-10-08T13:34:41.615Z,100999.81
2022-10-08T13:37:15.370Z,101009.72
2022-10-08T13:39:59.671Z,101009.16
2022-10-08T13:42:46.833Z,101010.56
2022-10-08T13:45:22.701Z,101009.41
2022-10-08T13:47:50.713Z,101012.63
2022-10-08T13:50:18.610Z,101006.69
2022-10-08T13:52:51.086Z,100999.84
2022-10-08T13:55:23.591Z,101013.84
2022-10-08T13:57:50.823Z,101045.16
2022-10-08T14:00:18.352Z,101010.72
2022-10-08T14:02:45.469Z,101008.06
2022-10-08T14:05:12.573Z,101016.28
2022-10-08T14:07:39.960Z,101019.16
2022-10-08T14:10:07.202Z,101015.47
2022-10-08T14:12:34.935Z,101008.38
2022-10-08T14:15:01.959Z,101015.69
2022-10-08T14:17:29.032Z,101016.28
2022-10-08T14:19:56.057Z,101008.53
2022-10-08T14:22:23.302Z,101021.81
2022-10-08T14:24:50.509Z,101018.28
2022-10-08T14:27:17.650Z,101017.91
2022-10-08T14:29:44.877Z,101018.63
2022-10-08T14:32:11.967Z,101019.50
2022-10-08T14:34:39.297Z,101019.06
2022-10-08T14:37:06.726Z,101026.47
2022-10-08T14:39:33.821Z,101024.88
2022-10-08T14:42:00.836Z,101034.00
2022-10-08T14:44:27.968Z,101063.50
2022-10-08T14:46:55.009Z,101097.75
2022-10-08T14:49:23.879Z,101085.59
2022-10-08T14:51:50.964Z,101064.66
2022-10-08T14:54:18.321Z,101046.34
2022-10-08T14:56:46.415Z,101033.88
2022-10-08T14:59:13.481Z,101043.22
2022-10-08T15:01:40.676Z,101038.03
2022-10-08T15:04:08.339Z,101045.16
2022-10-08T15:06:35.467Z,101049.06
2022-10-08T15:09:02.525Z,101054.69
2022-10-08T15:11:29.678Z,101058.94
2022-10-08T15:13:57.144Z,101060.63
2022-10-08T15:16:24.368Z,101068.25
2022-10-08T15:18:51.518Z,101067.06
2022-10-08T15:21:18.924Z,101078.41
2022-10-08T15:23:46.275Z,101078.59
2022-10-08T15:26:16.504Z,101078.25
2022-10-08T15:28:45.927Z,101094.28
2022-10-08T15:31:17.062Z,101109.91
2022-10-08T15:33:49.114Z,101109.69
2022-10-08T15:36:27.934Z,101116.09
2022-10-08T15:38:58.565Z,101121.09
2022-10-08T15:41:26.800Z,101120.03
2022-10-08T15:43:54.038Z,101118.94
2022-10-08T15:46:22.595Z,101133.59
2022-10-08T15:48:56.113Z,101137.00
2022-10-08T15:51:24.084Z,101126.81
2022-10-08T15:53:51.469Z,101142.47
2022-10-08T15:56:18.519Z,101151.63
2022-10-08T15:58:50.811Z,101141.63
2022-10-08T16:01:21.202Z,101139.53
2022-10-08T16:03:49.628Z,101150.22
2022-10-08T16:06:19.399Z,101162.19
2022-10-08T16:08:46.792Z,101162.22
2022-10-08T16:11:23.976Z,101145.41
2022-10-08T16:13:53.447Z,101154.38
2022-10-08T16:16:21.374Z,101165.69
2022-10-08T16:18:51.058Z,101156.50
2022-10-08T16:21:18.638Z,101164.25
2022-10-08T16:23:45.738Z,101169.81
2022-10-08T16:26:14.197Z,101168.44
2022-10-08T16:28:41.306Z,101169.41
2022-10-08T16:31:08.607Z,101172.19
2022-10-08T16:33:35.675Z,101171.44
2022-10-08T16:36:05.207Z,101180.31
2022-10-08T16:38:33.321Z,101185.88
2022-10-08T16:41:16.258Z,101189.34
2022-10-08T16:43:47.017Z,101187.72
2022-10-08T16:46:22.635Z,101188.56
2022-10-08T16:48:53.806Z,101198.19
2022-10-08T16:51:21.735Z,101205.44
2022-10-08T16:53:49.836Z,101199.38
2022-10-08T16:56:17.497Z,101198.69
2022-10-08T16:58:44.565Z,101209.25
2022-10-08T17:01:11.802Z,101217.97
2022-10-08T17:03:38.888Z,101222.28
2022-10-08T17:06:06.168Z,101222.81
2022-10-08T17:08:33.257Z,101238.56
2022-10-08T17:11:03.663Z,101247.16
2022-10-08T17:13:30.862Z,101255.59
2022-10-08T17:16:07.729Z,101259.91
2022-10-08T17:18:35.504Z,101261.97
2022-10-08T17:21:02.753Z,101271.06
2022-10-08T17:23:34.228Z,101268.78
2022-10-08T17:26:04.497Z,101265.28
2022-10-08T17:28:37.179Z,101270.94
2022-10-08T17:31:05.555Z,101276.94
2022-10-08T17:33:35.687Z,101280.44
2022-10-08T17:36:12.419Z,101285.63
2022-10-08T17:38:40.852Z,101290.19
2022-10-08T17:41:12.943Z,101294.13
2022-10-08T17:43:43.802Z,101299.06
2022-10-08T17:46:13.488Z,101306.03
2022-10-08T17:48:42.180Z,101299.53
2022-10-08T17:51:11.818Z,101300.72
2022-10-08T17:53:39.199Z,101307.78
2022-10-08T17:56:08.837Z,101317.63
2022-10-08T17:58:36.371Z,101328.56
2022-10-08T18:01:10.710Z,101328.50
2022-10-08T18:03:38.989Z,101329.72
2022-10-08T18:06:06.571Z,101327.41
2022-10-08T18:08:33.916Z,101333.75
2022-10-08T18:11:04.986Z,101332.81
2022-10-08T18:13:32.325Z,101337.41
2022-10-08T18:16:13.721Z,101349.41
2022-10-08T18:18:41.979Z,101352.34
2022-10-08T18:21:10.792Z,101356.53
2022-10-08T18:23:38.966Z,101353.75
2022-10-08T18:26:20.551Z,101359.25
2022-10-08T18:28:50.746Z,101368.16
2022-10-08T18:31:18.526Z,101372.03
2022-10-08T18:33:47.441Z,101362.81
2022-10-08T18:36:20.083Z,101375.56
2022-10-08T18:38:48.510Z,101368.06
2022-10-08T18:41:24.319Z,101379.75
2022-10-08T18:43:51.562Z,101377.09
2022-10-08T18:46:19.558Z,101382.50
2022-10-08T18:48:46.957Z,101382.38
2022-10-08T18:51:17.132Z,101386.13
2022-10-08T18:53:45.652Z,101389.25
2022-10-08T18:56:17.056Z,101388.31
2022-10-08T18:58:44.461Z,101393.03
2022-10-08T19:01:18.439Z,101397.69
2022-10-08T19:03:50.382Z,101404.78
2022-10-08T19:06:19.386Z,101409.28
2022-10-08T19:08:47.041Z,101409.34
2022-10-08T19:11:32.963Z,101418.75
2022-10-08T19:14:00.596Z,101420.53
2022-10-08T19:16:31.643Z,101410.56
2022-10-08T19:19:03.537Z,101427.34
2022-10-08T19:21:32.103Z,101422.44
2022-10-08T19:23:59.871Z,101423.31
2022-10-08T19:26:28.015Z,101425.84
2022-10-08T19:28:55.214Z,101432.19
2022-10-08T19:31:25.806Z,101432.59
2022-10-08T19:34:01.545Z,101438.94
2022-10-08T19:36:30.294Z,101448.81
2022-10-08T19:38:59.535Z,101449.63
2022-10-08T20:40:23.304Z,101508.72
2022-10-08T20:42:52.105Z,101517.59
2022-10-08T20:45:24.662Z,101513.25
2022-10-08T20:47:59.500Z,101520.09
2022-10-08T20:50:31.790Z,101521.06
2022-10-08T20:53:06.267Z,101524.34
2022-10-08T20:55:42.322Z,101526.97
2022-10-08T20:58:19.167Z,101530.69
2022-10-08T21:00:47.576Z,101533.38
2022-10-08T21:03:18.578Z,101531.69
2022-10-08T21:05:51.760Z,101530.88
2022-10-08T21:08:27.305Z,101539.38
2022-10-08T21:10:59.599Z,101541.19
2022-10-08T21:13:34.775Z,101540.50
2022-10-08T21:16:15.659Z,101547.66
2022-10-08T21:18:56.528Z,101554.75
2022-10-08T21:21:36.344Z,101560.75
2022-10-08T21:24:06.287Z,101565.22
2022-10-08T21:26:47.185Z,101560.75
2022-10-08T21:29:23.695Z,101567.91
2022-10-08T21:31:54.964Z,101564.63
2022-10-08T21:34:22.758Z,101566.31
2022-10-08T21:36:51.126Z,101564.78
2022-10-08T21:39:24.669Z,101571.66
2022-10-08T21:42:02.561Z,101577.84
2022-10-08T21:44:34.717Z,101580.78
2022-10-08T21:47:03.018Z,101578.22
2022-10-08T21:49:36.182Z,101579.00
2022-10-08T21:52:09.024Z,101578.34
2022-10-08T21:54:42.306Z,101582.81
2022-10-08T21:57:21.840Z,101585.25
2022-10-08T21:59:50.670Z,101580.22
2022-10-08T22:02:18.977Z,101586.50
2022-10-08T22:04:53.246Z,101591.75
2022-10-08T22:07:22.505Z,101587.66
2022-10-08T22:09:50.600Z,101591.09
2022-10-08T22:12:21.361Z,101583.97
2022-10-08T22:14:51.971Z,101584.91
2022-10-08T22:17:24.890Z,101591.94
2022-10-08T22:19:58.873Z,101597.38
2022-10-08T22:22:31.272Z,101598.91
2022-10-08T22:24:59.099Z,101597.38
2022-10-08T22:27:29.939Z,101593.25
2022-10-08T22:29:59.725Z,101603.38
2022-10-08T22:32:47.504Z,101603.50
2022-10-08T22:38:03.087Z,101605.50
2022-10-08T22:40:32.152Z,101597.50
2022-10-08T22:43:00.716Z,101604.72
2022-10-08T22:45:30.218Z,101614.50
2022-10-08T22:47:58.684Z,101611.94
2022-10-08T22:50:27.268Z,101618.66
2022-10-08T22:52:56.267Z,101613.53
2022-10-08T22:55:23.920Z,101621.34
2022-10-08T22:57:54.344Z,101618.91
2022-10-08T23:00:23.093Z,101616.09
2022-10-08T23:02:57.834Z,101618.03
2022-10-08T23:05:29.653Z,101613.81
2022-10-08T23:08:03.227Z,101614.75
2022-10-08T23:10:32.110Z,101616.19
2022-10-08T23:13:02.961Z,101619.09
2022-10-08T23:15:31.772Z,101624.09
2022-10-08T23:18:00.229Z,101623.97
2022-10-08T23:20:30.081Z,101630.34
2022-10-08T23:23:00.170Z,101626.22
2022-10-08T23:25:31.997Z,101622.81
2022-10-08T23:28:07.371Z,101619.34
2022-10-08T23:30:43.865Z,101618.50
2022-10-08T23:33:13.731Z,101621.09
2022-10-08T23:35:43.642Z,101628.09
2022-10-08T23:38:14.972Z,101626.38
2022-10-08T23:40:46.045Z,101622.91
2022-10-08T23:43:13.317Z,101634.28
2022-10-08T23:45:41.402Z,101628.25
2022-10-08T23:48:09.197Z,101639.69
2022-10-08T23:50:41.597Z,101643.19
2022-10-08T23:53:12.917Z,101638.94
2022-10-08T23:55:40.194Z,101638.00
2022-10-08T23:58:09.141Z,101638.09
